Wheeler AAF, Hawaii
Current Conditions -  °F | °C
As of 3:58 PM on Wednesday 26 Nov 2014 (Local Time) from PHHI Reporting Station
Scattered Clouds Scattered Clouds  
Wind Chill: 72°   Ceiling: Unl
Heat Index: 72°   Visibility: 10mi
Dew Point: 60°   Wind: 10mph
Humidity: 66%   Direction: 30°NNE
Pressure: 30.03"   Gusts: NA
Location:  21.49°N, 158.04°W
Report Text: PHHI 270158Z AUTO 03009KT 10SM SCT037 22/16 A3003 RMK AO2 SLP163 T02230157 $
Loading
Personal Weather Stations






























Interactive Weather Map New forecast layout! Learn more

10-Day Weather Forecast

Advertisements
Track Severe Weather on mobile